createdAt,value
2023-02-15T00:01:42.212Z,26.37
2023-02-15T00:04:10.266Z,24.17
2023-02-15T00:06:36.981Z,24.53
2023-02-15T00:09:04.525Z,28.43
2023-02-15T00:11:40.797Z,21.23
2023-02-15T00:14:08.683Z,23.93
2023-02-15T00:16:36.354Z,25.43
2023-02-15T00:19:04.023Z,26.33
2023-02-15T00:21:32.815Z,24.17
2023-02-15T00:24:01.011Z,30.57
2023-02-15T00:26:27.978Z,35.00
2023-02-15T00:28:55.642Z,23.63
2023-02-15T00:31:22.537Z,26.30
2023-02-15T00:33:49.340Z,29.37
2023-02-15T00:36:16.054Z,25.33
2023-02-15T00:38:42.770Z,23.97
2023-02-15T00:41:10.333Z,21.80
2023-02-15T00:43:37.673Z,23.13
2023-02-15T00:46:05.924Z,21.40
2023-02-15T00:48:32.638Z,21.90
2023-02-15T00:51:00.934Z,22.90
2023-02-15T00:53:28.601Z,22.33
2023-02-15T00:55:55.486Z,24.60
2023-02-15T00:58:22.456Z,20.00
2023-02-15T01:00:49.654Z,19.93
2023-02-15T01:03:17.935Z,21.87
2023-02-15T01:05:45.196Z,22.07
2023-02-15T01:08:11.901Z,22.87
2023-02-15T01:10:38.877Z,22.60
2023-02-15T01:13:06.231Z,18.80
2023-02-15T01:15:36.435Z,21.67
2023-02-15T01:18:03.227Z,21.23
2023-02-15T01:20:30.111Z,21.23
2023-02-15T01:22:58.203Z,20.30
2023-02-15T01:25:25.647Z,26.20
2023-02-15T01:27:52.537Z,33.03
2023-02-15T01:30:19.354Z,27.97
2023-02-15T01:32:46.039Z,30.43
2023-02-15T01:35:12.786Z,21.83
2023-02-15T01:37:39.752Z,22.50
2023-02-15T01:40:09.698Z,21.70
2023-02-15T01:42:36.439Z,25.87
2023-02-15T01:45:30.673Z,18.93
2023-02-15T01:48:13.307Z,21.17
2023-02-15T01:50:48.031Z,21.20
2023-02-15T01:53:42.047Z,18.20
2023-02-15T01:56:18.363Z,20.47
2023-02-15T01:58:46.386Z,17.00
2023-02-15T02:01:13.273Z,18.87
2023-02-15T02:04:08.098Z,17.70
2023-02-15T02:06:36.712Z,23.47
2023-02-15T02:09:04.526Z,20.07
2023-02-15T02:11:31.605Z,20.13
2023-02-15T02:13:58.318Z,16.07
2023-02-15T02:16:28.901Z,16.70
2023-02-15T02:19:06.441Z,14.80
2023-02-15T02:22:09.574Z,17.97
2023-02-15T02:24:42.096Z,17.30
2023-02-15T02:27:48.306Z,18.17
2023-02-15T02:30:42.418Z,15.43
2023-02-15T02:33:12.778Z,19.10
2023-02-15T02:36:17.594Z,19.80
2023-02-15T02:39:13.973Z,15.63
2023-02-15T02:42:19.265Z,17.13
2023-02-15T02:44:53.108Z,19.63
2023-02-15T02:47:34.076Z,18.10
2023-02-15T02:50:09.731Z,15.83
2023-02-15T02:52:46.156Z,19.40
2023-02-15T02:55:32.596Z,15.90
2023-02-15T02:58:18.984Z,16.23
2023-02-15T03:00:58.808Z,17.60
2023-02-15T03:03:38.778Z,16.23
2023-02-15T03:06:29.430Z,16.17
2023-02-15T03:09:02.352Z,27.47
2023-02-15T03:11:29.202Z,19.73
2023-02-15T03:13:55.908Z,19.17
2023-02-15T03:16:29.070Z,19.83
2023-02-15T03:19:13.283Z,16.83
2023-02-15T03:21:43.137Z,18.37
2023-02-15T03:24:18.579Z,18.80
2023-02-15T03:26:50.746Z,24.13
2023-02-15T03:29:19.509Z,26.67
2023-02-15T03:31:51.084Z,19.83
2023-02-15T03:34:18.782Z,21.53
2023-02-15T03:36:55.093Z,30.53
2023-02-15T03:39:44.076Z,15.57
2023-02-15T03:42:33.976Z,21.23
2023-02-15T03:45:08.210Z,18.03
2023-02-15T03:47:44.131Z,18.37
2023-02-15T03:50:37.142Z,22.10
2023-02-15T03:53:07.105Z,18.20
2023-02-15T03:55:35.785Z,20.40
2023-02-15T03:58:34.989Z,20.67
2023-02-15T04:01:39.341Z,17.67
2023-02-15T04:04:20.147Z,16.17
2023-02-15T04:06:47.141Z,16.47
2023-02-15T04:09:32.900Z,31.90
2023-02-15T04:11:59.706Z,24.70
2023-02-15T04:14:45.346Z,18.27
2023-02-15T04:17:12.048Z,17.37
2023-02-15T04:19:57.134Z,20.07
2023-02-15T04:22:42.733Z,17.63
2023-02-15T04:25:15.532Z,20.23
2023-02-15T04:27:51.414Z,20.87
2023-02-15T04:30:21.124Z,19.13
2023-02-15T04:32:48.256Z,21.27
2023-02-15T04:35:15.259Z,18.27
2023-02-15T04:37:42.734Z,18.50
2023-02-15T04:40:12.140Z,19.50
2023-02-15T04:42:39.041Z,18.50
2023-02-15T04:45:06.470Z,18.87
2023-02-15T04:47:33.468Z,18.27
2023-02-15T04:50:00.142Z,16.37
2023-02-15T04:52:26.918Z,17.30
2023-02-15T04:54:53.616Z,17.47
2023-02-15T04:57:20.279Z,18.33
2023-02-15T04:59:46.983Z,16.93
2023-02-15T05:02:13.722Z,18.50
2023-02-15T05:04:40.439Z,14.77
2023-02-15T05:07:07.082Z,17.43
2023-02-15T05:09:33.696Z,15.27
2023-02-15T05:12:00.530Z,18.60
2023-02-15T05:14:27.183Z,16.23
2023-02-15T05:16:54.996Z,14.70
2023-02-15T05:19:21.818Z,15.40
2023-02-15T05:21:48.534Z,15.73
2023-02-15T05:24:34.014Z,14.40
2023-02-15T05:27:19.465Z,16.10
2023-02-15T05:29:46.145Z,15.33
2023-02-15T05:32:15.060Z,15.77
2023-02-15T05:34:41.851Z,16.53
2023-02-15T05:37:09.347Z,14.00
2023-02-15T05:39:36.011Z,16.57
2023-02-15T05:42:02.722Z,15.90
2023-02-15T05:44:29.462Z,15.43
2023-02-15T05:46:56.173Z,15.03
2023-02-15T05:49:22.889Z,18.27
2023-02-15T05:51:50.020Z,14.23
2023-02-15T05:54:16.641Z,14.80
2023-02-15T05:56:43.326Z,14.13
2023-02-15T05:59:10.142Z,16.50
2023-02-15T06:01:36.910Z,16.23
2023-02-15T06:04:03.791Z,19.10
2023-02-15T06:06:30.557Z,16.10
2023-02-15T06:08:57.209Z,15.03
2023-02-15T06:11:23.859Z,15.23
2023-02-15T06:13:50.627Z,13.33
2023-02-15T06:16:17.366Z,13.13
2023-02-15T06:18:44.146Z,15.03
2023-02-15T06:21:10.895Z,15.50
2023-02-15T06:23:37.624Z,12.23
2023-02-15T06:26:04.579Z,14.73
2023-02-15T06:28:31.596Z,19.37
2023-02-15T06:30:58.375Z,15.93
2023-02-15T06:33:25.335Z,20.70
2023-02-15T06:35:52.138Z,30.93
2023-02-15T06:38:19.109Z,19.13
2023-02-15T06:40:45.778Z,15.50
2023-02-15T06:43:12.490Z,15.50
2023-02-15T06:45:39.326Z,14.87
2023-02-15T06:48:07.975Z,15.03
2023-02-15T06:50:35.353Z,16.60
2023-02-15T06:53:02.120Z,14.43
2023-02-15T06:55:28.843Z,14.83
2023-02-15T06:57:55.498Z,15.77
2023-02-15T07:00:24.022Z,14.27
2023-02-15T07:02:59.288Z,15.43
2023-02-15T07:05:31.676Z,15.37
2023-02-15T07:07:59.832Z,18.83
2023-02-15T07:10:27.405Z,16.23
2023-02-15T07:12:54.704Z,16.03
2023-02-15T07:15:21.975Z,16.13
2023-02-15T07:17:49.141Z,18.43
2023-02-15T07:20:21.419Z,16.17
2023-02-15T07:22:48.200Z,18.80
2023-02-15T07:25:15.504Z,16.90
2023-02-15T07:27:42.167Z,15.83
2023-02-15T07:30:13.191Z,17.03
2023-02-15T07:33:00.628Z,20.27
2023-02-15T07:35:27.641Z,22.30
2023-02-15T07:37:55.326Z,23.47
2023-02-15T07:40:24.282Z,23.67
2023-02-15T07:42:54.148Z,21.67
2023-02-15T07:45:21.748Z,20.57
2023-02-15T07:47:48.488Z,24.20
2023-02-15T07:50:15.413Z,20.23
2023-02-15T07:52:42.181Z,20.77
2023-02-15T07:55:09.883Z,21.87
2023-02-15T07:57:36.639Z,18.70
2023-02-15T08:00:04.734Z,16.17
2023-02-15T08:02:31.415Z,33.20
2023-02-15T08:04:58.098Z,19.03
2023-02-15T08:07:24.804Z,21.57
2023-02-15T08:09:51.521Z,20.40
2023-02-15T08:12:18.210Z,19.77
2023-02-15T08:14:44.875Z,17.93
2023-02-15T08:17:11.934Z,20.70
2023-02-15T08:19:38.561Z,16.97
2023-02-15T08:22:07.288Z,17.87
2023-02-15T08:24:37.855Z,21.23
2023-02-15T08:27:06.575Z,18.60
2023-02-15T08:29:34.351Z,21.53
2023-02-15T08:32:07.385Z,19.07
2023-02-15T08:34:37.442Z,17.87
2023-02-15T08:37:04.363Z,17.97
2023-02-15T08:39:30.998Z,15.70
2023-02-15T08:41:57.875Z,14.23
2023-02-15T08:44:24.790Z,15.17
2023-02-15T08:46:51.535Z,16.83
2023-02-15T08:49:21.274Z,13.93
2023-02-15T08:51:49.763Z,18.37
2023-02-15T08:54:21.790Z,16.43
2023-02-15T08:56:49.137Z,15.50
2023-02-15T08:59:18.370Z,14.10
2023-02-15T09:01:46.037Z,23.87
2023-02-15T09:04:13.953Z,27.33
2023-02-15T09:06:41.916Z,24.67
2023-02-15T09:09:09.391Z,21.07
2023-02-15T09:11:39.724Z,17.80
2023-02-15T09:14:10.207Z,21.73
2023-02-15T09:16:39.013Z,20.80
2023-02-15T09:19:06.936Z,19.90
2023-02-15T09:21:36.782Z,17.57
2023-02-15T09:24:06.161Z,17.47
2023-02-15T09:26:35.732Z,17.00
2023-02-15T09:29:04.498Z,17.43
2023-02-15T09:31:33.700Z,15.93
2023-02-15T09:34:04.298Z,16.83
2023-02-15T09:36:34.775Z,16.07
2023-02-15T09:39:15.389Z,14.07
2023-02-15T09:41:57.137Z,17.30
2023-02-15T09:44:35.794Z,16.47
2023-02-15T09:47:23.359Z,19.47
2023-02-15T09:50:07.854Z,21.40
2023-02-15T09:53:02.582Z,19.50
2023-02-15T09:56:06.620Z,20.67
2023-02-15T09:58:39.728Z,19.43
2023-02-15T10:01:36.124Z,21.53
2023-02-15T10:04:21.887Z,20.77
2023-02-15T10:07:02.562Z,21.47
2023-02-15T10:10:05.161Z,20.47
2023-02-15T10:12:47.231Z,21.40
2023-02-15T10:15:35.797Z,22.83
2023-02-15T10:18:21.006Z,24.00
2023-02-15T10:21:06.718Z,22.87
2023-02-15T10:24:18.314Z,21.67
2023-02-15T10:26:49.288Z,24.13
2023-02-15T10:29:38.548Z,22.87
2023-02-15T10:32:17.458Z,24.17
2023-02-15T10:35:11.441Z,25.13
2023-02-15T10:37:48.917Z,22.67
2023-02-15T10:40:28.263Z,23.73
2023-02-15T10:42:54.926Z,23.67
2023-02-15T10:45:30.670Z,23.80
2023-02-15T10:48:33.319Z,24.80
2023-02-15T10:51:06.339Z,26.50
2023-02-15T10:53:54.417Z,24.40
2023-02-15T10:56:36.052Z,24.27
2023-02-15T10:59:29.698Z,23.73
2023-02-15T11:02:11.755Z,25.20
2023-02-15T11:05:00.569Z,24.70
2023-02-15T11:07:36.914Z,24.27
2023-02-15T11:10:16.689Z,24.63
2023-02-15T11:12:46.177Z,26.50
2023-02-15T11:15:27.846Z,23.50
2023-02-15T11:18:12.742Z,23.43
2023-02-15T11:21:02.204Z,22.30
2023-02-15T11:23:29.802Z,21.73
2023-02-15T11:26:03.027Z,27.03
2023-02-15T11:28:38.198Z,25.93
2023-02-15T11:31:18.426Z,20.63
2023-02-15T11:33:52.776Z,21.93
2023-02-15T11:36:40.986Z,21.53
2023-02-15T11:39:15.912Z,23.10
2023-02-15T11:41:47.743Z,22.63
2023-02-15T11:44:14.329Z,24.53
2023-02-15T11:46:41.117Z,21.80
2023-02-15T11:49:25.146Z,23.33
2023-02-15T11:51:53.277Z,24.40
2023-02-15T11:54:25.018Z,22.30
2023-02-15T11:56:51.804Z,24.00
2023-02-15T11:59:30.605Z,21.47
2023-02-15T12:01:57.274Z,21.77
2023-02-15T12:04:35.632Z,25.23
2023-02-15T12:07:26.634Z,22.83
2023-02-15T12:09:57.537Z,22.77
2023-02-15T12:12:33.550Z,23.20
2023-02-15T12:15:06.547Z,24.60
2023-02-15T12:17:41.517Z,22.83
2023-02-15T12:20:21.843Z,25.23
2023-02-15T12:22:59.504Z,24.00
2023-02-15T12:25:40.773Z,23.73
2023-02-15T12:28:42.149Z,25.03
2023-02-15T12:31:23.451Z,25.40
2023-02-15T12:33:53.626Z,26.67
2023-02-15T12:36:23.489Z,25.97
2023-02-15T12:39:18.363Z,28.37
2023-02-15T12:41:47.629Z,23.73
2023-02-15T12:44:20.053Z,21.83
2023-02-15T12:47:03.450Z,25.93
2023-02-15T12:49:47.644Z,21.53
2023-02-15T12:52:21.155Z,28.90
2023-02-15T12:54:48.358Z,23.07
2023-02-15T12:57:23.846Z,25.37
2023-02-15T12:59:52.406Z,24.80
2023-02-15T13:02:29.100Z,26.10
2023-02-15T13:04:58.644Z,28.80
2023-02-15T13:07:31.071Z,24.97
2023-02-15T13:09:58.752Z,25.47
2023-02-15T13:12:31.539Z,25.03
2023-02-15T13:15:00.137Z,23.57
2023-02-15T13:17:35.126Z,23.47
2023-02-15T13:20:23.801Z,26.77
2023-02-15T13:22:54.928Z,29.67
2023-02-15T13:25:28.048Z,23.87
2023-02-15T13:27:58.470Z,26.30
2023-02-15T13:30:36.018Z,29.87
2023-02-15T13:33:11.479Z,26.83
2023-02-15T13:35:55.964Z,26.77
2023-02-15T13:38:47.862Z,26.40
2023-02-15T13:41:20.684Z,27.77
2023-02-15T13:44:03.558Z,27.50
2023-02-15T13:46:46.807Z,29.30
2023-02-15T13:49:47.066Z,26.37
2023-02-15T13:52:22.134Z,28.83
2023-02-15T13:54:58.192Z,38.83
2023-02-15T13:57:58.415Z,33.73
2023-02-15T14:00:46.975Z,36.13
2023-02-15T14:03:44.912Z,34.77
2023-02-15T14:06:17.604Z,33.90
2023-02-15T14:08:44.267Z,31.13
2023-02-15T14:11:29.032Z,34.20
2023-02-15T14:14:20.860Z,33.50
2023-02-15T14:17:07.545Z,33.37
2023-02-15T14:19:53.772Z,31.13
2023-02-15T14:22:42.654Z,32.90
2023-02-15T14:25:31.451Z,35.03
2023-02-15T14:28:07.178Z,29.83
2023-02-15T14:30:38.106Z,33.33
2023-02-15T14:33:25.910Z,34.23
2023-02-15T14:35:52.861Z,37.80
2023-02-15T14:38:47.956Z,45.23
2023-02-15T14:41:33.194Z,38.27
2023-02-15T14:44:28.025Z,33.03
2023-02-15T14:46:57.511Z,32.40
2023-02-15T14:49:31.271Z,34.27
2023-02-15T14:52:08.113Z,37.63
2023-02-15T14:54:34.950Z,36.50
2023-02-15T14:57:01.521Z,35.87
2023-02-15T14:59:51.027Z,34.97
2023-02-15T15:02:42.713Z,42.13
2023-02-15T15:05:14.149Z,40.80
2023-02-15T15:07:54.724Z,37.80
2023-02-15T15:10:21.628Z,43.33
2023-02-15T15:12:54.117Z,36.40
2023-02-15T15:15:32.616Z,38.93
2023-02-15T15:18:02.437Z,34.13
2023-02-15T15:20:52.139Z,37.30
2023-02-15T15:23:19.061Z,38.10
2023-02-15T15:25:53.184Z,39.73
2023-02-15T15:28:35.161Z,35.50
2023-02-15T15:31:11.546Z,33.73
2023-02-15T15:33:57.952Z,34.83
2023-02-15T15:36:52.541Z,34.07
2023-02-15T15:39:40.093Z,32.43
2023-02-15T15:42:54.896Z,30.47
2023-02-15T15:45:41.200Z,29.20
2023-02-15T15:48:37.514Z,30.53
2023-02-15T15:51:11.389Z,31.30
2023-02-15T15:53:46.733Z,30.67
2023-02-15T15:56:24.321Z,27.43
2023-02-15T15:59:07.979Z,28.43
2023-02-15T16:01:43.174Z,29.97
2023-02-15T16:04:15.466Z,29.57
2023-02-15T16:06:42.734Z,28.83
2023-02-15T16:09:18.524Z,29.30
2023-02-15T16:11:47.927Z,30.03
2023-02-15T16:14:22.432Z,30.07
2023-02-15T16:16:52.140Z,27.67
2023-02-15T16:19:29.033Z,26.07
2023-02-15T16:21:58.522Z,37.77
2023-02-15T16:25:10.401Z,32.07
2023-02-15T16:27:42.580Z,31.73
2023-02-15T16:30:24.367Z,30.43
2023-02-15T16:33:08.121Z,26.87
2023-02-15T16:35:36.877Z,33.00
2023-02-15T16:38:04.743Z,27.53
2023-02-15T16:40:56.884Z,29.10
2023-02-15T16:43:27.410Z,29.03
2023-02-15T16:46:08.082Z,27.90
2023-02-15T16:48:38.585Z,29.40
2023-02-15T16:51:05.858Z,48.83
2023-02-15T16:53:32.735Z,37.70
2023-02-15T16:56:03.063Z,33.80
2023-02-15T16:58:45.678Z,31.57
2023-02-15T17:01:15.663Z,30.67
2023-02-15T17:03:43.190Z,36.37
2023-02-15T17:06:26.778Z,29.67
2023-02-15T17:09:03.384Z,32.47
2023-02-15T17:11:41.191Z,33.37
2023-02-15T17:14:09.722Z,33.37
2023-02-15T17:16:49.972Z,39.10
2023-02-15T17:19:30.344Z,32.87
2023-02-15T17:22:07.547Z,32.90
2023-02-15T17:24:42.648Z,35.50
2023-02-15T17:27:17.714Z,35.87
2023-02-15T17:29:52.891Z,39.30
2023-02-15T17:32:23.305Z,34.67
2023-02-15T17:35:21.231Z,31.70
2023-02-15T17:37:49.955Z,36.30
2023-02-15T17:40:24.572Z,32.30
2023-02-15T17:42:51.697Z,35.60
2023-02-15T17:45:18.944Z,30.80
2023-02-15T17:47:48.104Z,31.90
2023-02-15T17:50:23.665Z,37.03
2023-02-15T17:52:51.678Z,30.33
2023-02-15T17:55:36.174Z,32.17
2023-02-15T17:58:06.112Z,32.03
2023-02-15T18:00:54.898Z,35.07
2023-02-15T18:03:40.276Z,36.83
2023-02-15T18:06:25.671Z,32.13
2023-02-15T18:09:12.661Z,32.80
2023-02-15T18:11:39.611Z,30.60
2023-02-15T18:14:08.506Z,32.37
2023-02-15T18:16:38.742Z,34.43
2023-02-15T18:19:06.976Z,43.80
2023-02-15T18:21:33.992Z,77.83
2023-02-15T18:24:00.767Z,40.90
2023-02-15T18:26:28.855Z,33.27
2023-02-15T18:28:55.682Z,32.17
2023-02-15T18:31:23.996Z,35.30
2023-02-15T18:33:54.378Z,30.03
2023-02-15T18:36:28.427Z,28.63
2023-02-15T18:38:56.494Z,28.93
2023-02-15T18:41:23.685Z,133.93
2023-02-15T18:43:51.452Z,36.17
2023-02-15T18:46:18.367Z,30.60
2023-02-15T18:48:46.436Z,45.67
2023-02-15T18:51:22.243Z,35.50
2023-02-15T18:53:52.833Z,40.83
2023-02-15T18:56:22.367Z,40.40
2023-02-15T18:58:49.390Z,37.30
2023-02-15T19:01:18.830Z,38.60
2023-02-15T19:03:50.813Z,44.67
2023-02-15T19:06:20.650Z,42.37
2023-02-15T19:08:50.686Z,45.90
2023-02-15T19:11:23.312Z,42.93
2023-02-15T19:13:51.770Z,41.03
2023-02-15T19:16:33.258Z,57.37
2023-02-15T19:19:01.240Z,138.67
2023-02-15T19:21:31.908Z,48.43
2023-02-15T19:24:03.338Z,47.90
2023-02-15T19:26:44.571Z,51.90
2023-02-15T19:29:23.770Z,52.13
2023-02-15T19:31:50.589Z,49.07
2023-02-15T19:34:18.715Z,59.37
2023-02-15T19:36:50.875Z,52.30
2023-02-15T19:39:23.934Z,55.03
2023-02-15T19:41:50.860Z,60.90
2023-02-15T19:44:18.317Z,65.90
2023-02-15T19:46:45.752Z,55.47
2023-02-15T19:49:12.842Z,55.63
2023-02-15T19:51:39.781Z,58.60
2023-02-15T19:54:34.110Z,59.43
2023-02-15T19:57:01.425Z,55.53
2023-02-15T19:59:32.277Z,80.77
2023-02-15T20:01:59.157Z,56.07
2023-02-15T20:04:26.457Z,62.27
2023-02-15T20:06:55.803Z,68.50
2023-02-15T20:09:31.979Z,54.57
2023-02-15T20:11:58.646Z,46.07
2023-02-15T20:14:25.402Z,47.27
2023-02-15T20:16:52.061Z,52.57
2023-02-15T20:19:18.797Z,48.03
2023-02-15T20:21:51.892Z,49.43
2023-02-15T20:24:21.634Z,44.40
2023-02-15T20:26:48.369Z,49.37
2023-02-15T20:29:18.483Z,49.57
2023-02-15T20:31:45.576Z,48.80
2023-02-15T20:34:12.414Z,44.77
2023-02-15T20:36:39.865Z,38.47
2023-02-15T20:39:17.326Z,46.97
2023-02-15T20:41:50.027Z,43.97
2023-02-15T20:44:18.383Z,39.53
2023-02-15T20:46:45.061Z,40.70
2023-02-15T20:49:12.038Z,39.13
2023-02-15T20:51:41.462Z,35.87
2023-02-15T20:54:22.816Z,36.30
2023-02-15T20:56:50.289Z,39.47
2023-02-15T20:59:30.557Z,33.73
2023-02-15T21:02:02.990Z,41.90
2023-02-15T21:04:32.349Z,34.97
2023-02-15T21:07:00.642Z,33.93
2023-02-15T21:09:27.847Z,37.90
2023-02-15T21:11:58.103Z,33.80
2023-02-15T21:14:26.861Z,33.80
2023-02-15T21:16:53.920Z,31.83
2023-02-15T21:19:22.623Z,31.60
2023-02-15T21:21:52.209Z,33.50
2023-02-15T21:24:28.052Z,34.13
2023-02-15T21:26:55.832Z,33.10
2023-02-15T21:29:25.508Z,38.83
2023-02-15T21:31:52.527Z,38.10
2023-02-15T21:34:19.742Z,35.77
2023-02-15T21:36:48.396Z,32.13
2023-02-15T21:39:24.195Z,37.90
2023-02-15T21:42:11.664Z,45.40
2023-02-15T21:44:57.225Z,36.77
2023-02-15T21:47:47.684Z,39.87
2023-02-15T21:50:42.138Z,48.17
2023-02-15T21:53:20.018Z,59.07
2023-02-15T21:55:46.666Z,36.00
2023-02-15T21:58:21.013Z,38.23
2023-02-15T22:00:48.933Z,34.17
2023-02-15T22:03:16.018Z,32.27
2023-02-15T22:05:42.705Z,33.70
2023-02-15T22:08:12.904Z,31.77
2023-02-15T22:10:41.092Z,35.10
2023-02-15T22:13:29.239Z,33.47
2023-02-15T22:15:56.813Z,31.20
2023-02-15T22:18:26.836Z,29.37
2023-02-15T22:20:54.649Z,30.37
2023-02-15T22:23:22.935Z,27.23
2023-02-15T22:25:56.920Z,26.60
2023-02-15T22:28:29.067Z,26.17
2023-02-15T22:30:55.809Z,24.30
2023-02-15T22:33:34.239Z,24.47
2023-02-15T22:36:01.317Z,28.03
2023-02-15T22:38:28.131Z,22.37
2023-02-15T22:40:58.200Z,24.43
2023-02-15T22:43:37.965Z,23.80
2023-02-15T22:46:08.191Z,22.67
2023-02-15T22:48:35.656Z,25.10
2023-02-15T22:51:02.717Z,20.60
2023-02-15T22:53:29.775Z,21.00
2023-02-15T22:55:56.813Z,23.13
2023-02-15T22:58:28.087Z,21.20
2023-02-15T23:00:55.628Z,19.07
2023-02-15T23:03:28.950Z,19.27
2023-02-15T23:05:55.605Z,17.37
2023-02-15T23:08:22.414Z,20.23
2023-02-15T23:10:54.042Z,18.70
2023-02-15T23:13:27.073Z,18.17
2023-02-15T23:16:00.181Z,18.03
2023-02-15T23:18:31.304Z,19.67
2023-02-15T23:21:03.530Z,16.17
2023-02-15T23:23:30.388Z,17.33
2023-02-15T23:25:57.418Z,16.80
2023-02-15T23:28:44.427Z,20.93
2023-02-15T23:31:31.414Z,18.47
2023-02-15T23:33:59.190Z,18.50
2023-02-15T23:36:30.726Z,18.13
2023-02-15T23:39:20.656Z,45.77
2023-02-15T23:41:47.338Z,19.83
2023-02-15T23:44:14.559Z,19.20
2023-02-15T23:46:44.380Z,26.20
2023-02-15T23:49:15.363Z,24.90
2023-02-15T23:51:51.291Z,22.47
2023-02-15T23:54:20.620Z,18.83
2023-02-15T23:56:55.779Z,17.77
2023-02-15T23:59:25.800Z,22.67
